WetterOnline ( https://www.wetteronline.de )

Wetter aktuell Dinkelsbühl

Aktuelles Wetter: Feuchtwangen-Heilbronn (475m)

6-stündlich | Neueste Meldungen
Ortszeit Temperatur Wetter
Sa, 18.01. 7:00 3.4° C bedeckt
Sa, 18.01. 1:00 5.8° C bewölkt
Fr, 17.01. 19:00 6.7° C bedeckt
Fr, 17.01. 13:00 6.7° C leicht bewölkt
Fr, 17.01. 7:00 -2.1° C Nebel
Fr, 17.01. 1:00 1.4° C wolkenlos
Do, 16.01. 19:00 4.7° C wolkenlos
Do, 16.01. 13:00 11.1° C wolkig
Ortszeit Temperatur Wetter
Sa, 18.01. 12:00 3.9° C wolkig
Sa, 18.01. 11:50 3.9° C wolkig
Sa, 18.01. 11:40 3.8° C wolkig
Sa, 18.01. 11:30 3.7° C bewölkt
Sa, 18.01. 11:20 3.7° C bewölkt
Sa, 18.01. 11:10 3.7° C wolkig
Sa, 18.01. 11:00 3.7° C bedeckt
Sa, 18.01. 10:30 3.3° C wolkig
Sa, 18.01. 10:00 3.2° C bedeckt
Sa, 18.01. 9:30 3.2° C bewölkt
Sa, 18.01. 9:00 3.3° C bewölkt
Ortszeit Relative Feuchte Sichtweite
Sa, 18.01. 7:00 92% 35 km
Sa, 18.01. 1:00 92% 30 km
Fr, 17.01. 19:00 77% 40 km
Fr, 17.01. 13:00 75% 25 km
Fr, 17.01. 7:00 100% 100 m
Fr, 17.01. 1:00 93% 18 km
Do, 16.01. 19:00 85% 45 km
Do, 16.01. 13:00 60% 45 km
Ortszeit Relative Feuchte Sichtweite
Sa, 18.01. 12:00 82% 40 km
Sa, 18.01. 11:50 82% -
Sa, 18.01. 11:40 81% -
Sa, 18.01. 11:30 81% 45 km
Sa, 18.01. 11:20 81% -
Sa, 18.01. 11:10 81% -
Sa, 18.01. 11:00 81% 45 km
Sa, 18.01. 10:30 85% 40 km
Sa, 18.01. 10:00 86% 50 km
Sa, 18.01. 9:30 86% 40 km
Sa, 18.01. 9:00 86% 40 km
Ortszeit Niederschlagsmenge Niederschlagsart
Sa, 18.01. 7:00 0.2 l/m2 in 12 Std. -
Sa, 18.01. 1:00 0.2 l/m2 in 6 Std. Regen
Fr, 17.01. 19:00 0.1 l/m2 in 12 Std. Regen
Fr, 17.01. 13:00 0.0 l/m2 in 6 Std. -
Fr, 17.01. 7:00 0.0 l/m2 in 12 Std. -
Fr, 17.01. 1:00 0.0 l/m2 in 6 Std. -
Do, 16.01. 19:00 0.0 l/m2 in 12 Std. -
Do, 16.01. 13:00 0.0 l/m2 in 6 Std. -
Ortszeit Niederschlagsmenge Niederschlagsart
Sa, 18.01. 12:00 0.0 l/m2 in 1 Std. -
Sa, 18.01. 11:50 keine Meldung -
Sa, 18.01. 11:40 keine Meldung -
Sa, 18.01. 11:30 0.0 l/m2 in 1 Std. -
Sa, 18.01. 11:20 keine Meldung -
Sa, 18.01. 11:10 keine Meldung -
Sa, 18.01. 11:00 0.0 l/m2 in 1 Std. -
Sa, 18.01. 10:30 0.0 l/m2 in 1 Std. -
Sa, 18.01. 10:00 0.0 l/m2 in 1 Std. -
Sa, 18.01. 9:30 0.0 l/m2 in 1 Std. -
Sa, 18.01. 9:00 0.0 l/m2 in 1 Std. -
Ortszeit Stärke Spitze Richtung
km/h Bft. km/h Grad Sektor
Sa, 18.01. 7:00 11 2 37 260° W
Sa, 18.01. 1:00 11 2 29 270° W
Fr, 17.01. 19:00 9 2 20 240° SW
Fr, 17.01. 13:00 7 2 11 190° S
Fr, 17.01. 7:00 0 0 11 - -
Fr, 17.01. 1:00 13 3 13 90° O
Do, 16.01. 19:00 7 2 18 110° O
Do, 16.01. 13:00 7 2 11 140° SO
Ortszeit Stärke Spitze Richtung
km/h Bft. km/h Grad Sektor
Sa, 18.01. 12:00 13 3 28 260° W
Sa, 18.01. 11:50 13 3 - 260° W
Sa, 18.01. 11:40 11 2 - 270° W
Sa, 18.01. 11:30 15 3 24 260° W
Sa, 18.01. 11:20 15 3 - 260° W
Sa, 18.01. 11:10 13 3 - 260° W
Sa, 18.01. 11:00 13 3 22 270° W
Sa, 18.01. 10:30 14 3 22 260° W
Sa, 18.01. 10:00 11 2 25 260° W
Sa, 18.01. 9:30 13 3 26 270° W
Sa, 18.01. 9:00 14 3 29 270° W
Ortszeit Untergrenze Bedeckung Gattung
total tief tief mittel hoch
Sa, 18.01. 7:00 420 m 8/8 8/8 - - -
Sa, 18.01. 1:00 420 m 8/8 6/8 - - -
Fr, 17.01. 19:00 1110 m 8/8 8/8 - - -
Fr, 17.01. 13:00 7200 m 8/8 0/8 - - -
Fr, 17.01. 7:00 - 0/8 0/8 - - -
Fr, 17.01. 1:00 - 0/8 0/8 - - -
Do, 16.01. 19:00 - 0/8 0/8 - - -
Do, 16.01. 13:00 1050 m 6/8 6/8 - - -
Ortszeit Bedeckungsgrad in Achtel und Wolkenuntergrenze
Sa, 18.01. 12:00 3(510m) 8(4200m)
Sa, 18.01. 11:50 3(510m) 8(4200m)
Sa, 18.01. 11:40 3(480m) 8(4200m)
Sa, 18.01. 11:30 4(510m) 8(3900m)
Sa, 18.01. 11:20 4(510m) 8(3900m)
Sa, 18.01. 11:10 1(510m) 8(3900m)
Sa, 18.01. 11:00 8(3900m)
Sa, 18.01. 10:30 2(420m) 8(3600m)
Sa, 18.01. 10:00 8(3600m) 8(3600m)
Sa, 18.01. 9:30 4(450m) 4(810m) 8(3600m)
Sa, 18.01. 9:00 4(420m) 7(750m) 8(3900m)
Ortszeit Luftdruck NN (hPa) Tendenz (hPa in 3 Std.)
Sa, 18.01. 7:00 1027 + 1,3
Sa, 18.01. 1:00 1023 + 0,9
Fr, 17.01. 19:00 1020 + 0,9
Fr, 17.01. 13:00 1020 - 1,3
Fr, 17.01. 7:00 1024 - 1,1
Fr, 17.01. 1:00 1026 - 2,3
Do, 16.01. 19:00 1029 0,0
Do, 16.01. 13:00 1029 - 0,8
Ortszeit Luftdruck NN (hPa) Tendenz (hPa in 3 Std.)
Sa, 18.01. 12:00 1028 + 0,3
Sa, 18.01. 11:50 1028 keine Meldung
Sa, 18.01. 11:40 1028 keine Meldung
Sa, 18.01. 11:30 1028 + 0,5
Sa, 18.01. 11:20 1028 keine Meldung
Sa, 18.01. 11:10 1028 keine Meldung
Sa, 18.01. 11:00 1028 + 0,7
Sa, 18.01. 10:30 1028 + 0,8
Sa, 18.01. 10:00 1028 + 1,0
Sa, 18.01. 9:30 1028 + 1,0
Sa, 18.01. 9:00 1028 + 1,1
Ortszeit Schneehöhe (cm)
Sa, 18.01. 7:00 0
Sa, 18.01. 1:00 0
Fr, 17.01. 19:00 0
Fr, 17.01. 13:00 0
Fr, 17.01. 7:00 0
Fr, 17.01. 1:00 0
Do, 16.01. 19:00 0
Do, 16.01. 13:00 0
Ortszeit Schneehöhe (cm)
Sa, 18.01. 12:00 0
Sa, 18.01. 11:50 0
Sa, 18.01. 11:40 0
Sa, 18.01. 11:30 0
Sa, 18.01. 11:20 0
Sa, 18.01. 11:10 0
Sa, 18.01. 11:00 0
Sa, 18.01. 10:30 0
Sa, 18.01. 10:00 0
Sa, 18.01. 9:30 0
Sa, 18.01. 9:00 0
Link zu dieser Seite / Seite empfehlen

Das Wetter in ...